sensor_id;sensor_type;location;lat;lon;timestamp;temperature;humidity
49855;DHT22;35752;52.164;21.244;2022-11-03T00:01:11;9.50;99.90
49855;DHT22;35752;52.164;21.244;2022-11-03T00:03:37;9.50;99.90
49855;DHT22;35752;52.164;21.244;2022-11-03T00:06:02;9.40;99.90
49855;DHT22;35752;52.164;21.244;2022-11-03T00:08:32;9.40;99.90
49855;DHT22;35752;52.164;21.244;2022-11-03T00:11:04;9.30;99.90
49855;DHT22;35752;52.164;21.244;2022-11-03T00:13:30;9.20;99.90
49855;DHT22;35752;52.164;21.244;2022-11-03T00:15:56;9.20;99.90
49855;DHT22;35752;52.164;21.244;2022-11-03T00:18:21;9.20;99.90
49855;DHT22;35752;52.164;21.244;2022-11-03T00:21:09;9.20;99.90
49855;DHT22;35752;52.164;21.244;2022-11-03T00:23:36;9.10;99.90
49855;DHT22;35752;52.164;21.244;2022-11-03T00:28:31;9.00;99.90
49855;DHT22;35752;52.164;21.244;2022-11-03T00:30:57;8.90;99.90
49855;DHT22;35752;52.164;21.244;2022-11-03T00:33:22;8.80;99.90
49855;DHT22;35752;52.164;21.244;2022-11-03T00:35:55;8.80;99.90
49855;DHT22;35752;52.164;21.244;2022-11-03T00:38:20;8.80;99.90
49855;DHT22;35752;52.164;21.244;2022-11-03T00:40:51;8.80;99.90
49855;DHT22;35752;52.164;21.244;2022-11-03T00:43:17;8.70;99.90
49855;DHT22;35752;52.164;21.244;2022-11-03T00:45:42;8.60;99.90
49855;DHT22;35752;52.164;21.244;2022-11-03T00:48:08;8.60;99.90
49855;DHT22;35752;52.164;21.244;2022-11-03T00:50:52;8.50;99.90
49855;DHT22;35752;52.164;21.244;2022-11-03T00:53:17;8.50;99.90
49855;DHT22;35752;52.164;21.244;2022-11-03T00:55:47;8.50;99.90
49855;DHT22;35752;52.164;21.244;2022-11-03T00:58:13;8.50;99.90
49855;DHT22;35752;52.164;21.244;2022-11-03T01:00:38;8.50;99.90
49855;DHT22;35752;52.164;21.244;2022-11-03T01:03:05;8.50;99.90
49855;DHT22;35752;52.164;21.244;2022-11-03T01:05:30;8.50;99.90
49855;DHT22;35752;52.164;21.244;2022-11-03T01:08:14;8.50;99.90
49855;DHT22;35752;52.164;21.244;2022-11-03T01:10:40;8.40;99.90
49855;DHT22;35752;52.164;21.244;2022-11-03T01:13:25;8.30;99.90
49855;DHT22;35752;52.164;21.244;2022-11-03T01:15:51;8.30;99.90
49855;DHT22;35752;52.164;21.244;2022-11-03T01:18:16;8.30;99.90
49855;DHT22;35752;52.164;21.244;2022-11-03T01:20:42;8.30;99.90
49855;DHT22;35752;52.164;21.244;2022-11-03T01:23:07;8.30;99.90
49855;DHT22;35752;52.164;21.244;2022-11-03T01:25:34;8.20;99.90
49855;DHT22;35752;52.164;21.244;2022-11-03T01:28:01;8.20;99.90
49855;DHT22;35752;52.164;21.244;2022-11-03T01:30:26;8.20;99.90
49855;DHT22;35752;52.164;21.244;2022-11-03T01:32:52;8.10;99.90
49855;DHT22;35752;52.164;21.244;2022-11-03T01:35:17;8.10;99.90
49855;DHT22;35752;52.164;21.244;2022-11-03T01:37:43;8.00;99.90
49855;DHT22;35752;52.164;21.244;2022-11-03T01:40:08;8.00;99.90
49855;DHT22;35752;52.164;21.244;2022-11-03T01:42:34;7.90;99.90
49855;DHT22;35752;52.164;21.244;2022-11-03T01:44:59;7.80;99.90
49855;DHT22;35752;52.164;21.244;2022-11-03T01:47:29;7.80;99.90
49855;DHT22;35752;52.164;21.244;2022-11-03T01:50:16;7.80;99.90
49855;DHT22;35752;52.164;21.244;2022-11-03T01:52:42;7.80;99.90
49855;DHT22;35752;52.164;21.244;2022-11-03T01:55:41;7.70;99.90
49855;DHT22;35752;52.164;21.244;2022-11-03T01:58:21;7.70;99.90
49855;DHT22;35752;52.164;21.244;2022-11-03T02:00:48;7.70;99.90
49855;DHT22;35752;52.164;21.244;2022-11-03T02:03:15;7.60;99.90
49855;DHT22;35752;52.164;21.244;2022-11-03T02:05:41;7.60;99.90
49855;DHT22;35752;52.164;21.244;2022-11-03T02:08:09;7.50;99.90
49855;DHT22;35752;52.164;21.244;2022-11-03T02:10:36;7.50;99.90
49855;DHT22;35752;52.164;21.244;2022-11-03T02:13:06;7.50;99.90
49855;DHT22;35752;52.164;21.244;2022-11-03T02:15:31;7.40;99.90
49855;DHT22;35752;52.164;21.244;2022-11-03T02:17:57;7.40;99.90
49855;DHT22;35752;52.164;21.244;2022-11-03T02:20:25;7.30;99.90
49855;DHT22;35752;52.164;21.244;2022-11-03T02:23:01;7.20;99.90
49855;DHT22;35752;52.164;21.244;2022-11-03T02:28:00;7.20;99.90
49855;DHT22;35752;52.164;21.244;2022-11-03T02:30:27;7.20;99.90
49855;DHT22;35752;52.164;21.244;2022-11-03T02:32:57;7.10;99.90
49855;DHT22;35752;52.164;21.244;2022-11-03T02:35:31;7.10;99.90
49855;DHT22;35752;52.164;21.244;2022-11-03T02:37:58;7.00;99.90
49855;DHT22;35752;52.164;21.244;2022-11-03T02:40:59;7.00;99.90
49855;DHT22;35752;52.164;21.244;2022-11-03T02:43:16;7.00;99.90
49855;DHT22;35752;52.164;21.244;2022-11-03T02:45:42;6.90;99.90
49855;DHT22;35752;52.164;21.244;2022-11-03T02:48:10;6.90;99.90
49855;DHT22;35752;52.164;21.244;2022-11-03T02:50:35;6.90;99.90
49855;DHT22;35752;52.164;21.244;2022-11-03T02:53:01;6.90;99.90
49855;DHT22;35752;52.164;21.244;2022-11-03T03:00:49;6.80;99.90
49855;DHT22;35752;52.164;21.244;2022-11-03T03:03:18;6.80;99.90
49855;DHT22;35752;52.164;21.244;2022-11-03T03:05:46;6.80;99.90
49855;DHT22;35752;52.164;21.244;2022-11-03T03:08:13;6.80;99.90
49855;DHT22;35752;52.164;21.244;2022-11-03T03:10:40;6.80;99.90
49855;DHT22;35752;52.164;21.244;2022-11-03T03:13:06;6.80;99.90
49855;DHT22;35752;52.164;21.244;2022-11-03T03:15:51;6.80;99.90
49855;DHT22;35752;52.164;21.244;2022-11-03T03:18:21;6.70;99.90
49855;DHT22;35752;52.164;21.244;2022-11-03T03:20:55;6.70;99.90
49855;DHT22;35752;52.164;21.244;2022-11-03T03:23:24;6.70;99.90
49855;DHT22;35752;52.164;21.244;2022-11-03T03:26:09;6.70;99.90
49855;DHT22;35752;52.164;21.244;2022-11-03T03:28:41;6.60;99.90
49855;DHT22;35752;52.164;21.244;2022-11-03T03:31:08;6.60;99.90
49855;DHT22;35752;52.164;21.244;2022-11-03T03:33:35;6.60;99.90
49855;DHT22;35752;52.164;21.244;2022-11-03T03:36:02;6.60;99.90
49855;DHT22;35752;52.164;21.244;2022-11-03T03:38:32;6.60;99.90
49855;DHT22;35752;52.164;21.244;2022-11-03T03:40:59;6.60;99.90
49855;DHT22;35752;52.164;21.244;2022-11-03T03:43:28;6.60;99.90
49855;DHT22;35752;52.164;21.244;2022-11-03T03:45:57;6.60;99.90
49855;DHT22;35752;52.164;21.244;2022-11-03T03:48:24;6.60;99.90
49855;DHT22;35752;52.164;21.244;2022-11-03T03:50:49;6.60;99.90
49855;DHT22;35752;52.164;21.244;2022-11-03T03:53:16;6.50;99.90
49855;DHT22;35752;52.164;21.244;2022-11-03T03:55:42;6.40;99.90
49855;DHT22;35752;52.164;21.244;2022-11-03T03:58:11;6.50;99.90
49855;DHT22;35752;52.164;21.244;2022-11-03T04:00:37;6.50;99.90
49855;DHT22;35752;52.164;21.244;2022-11-03T04:03:04;6.40;99.90
49855;DHT22;35752;52.164;21.244;2022-11-03T04:05:30;6.30;99.90
49855;DHT22;35752;52.164;21.244;2022-11-03T04:07:56;6.30;99.90
49855;DHT22;35752;52.164;21.244;2022-11-03T04:10:22;6.30;99.90
49855;DHT22;35752;52.164;21.244;2022-11-03T04:12:48;6.20;99.90
49855;DHT22;35752;52.164;21.244;2022-11-03T04:15:33;6.20;99.90
49855;DHT22;35752;52.164;21.244;2022-11-03T04:18:20;6.20;99.90
49855;DHT22;35752;52.164;21.244;2022-11-03T04:21:04;6.10;99.90
49855;DHT22;35752;52.164;21.244;2022-11-03T04:23:49;6.10;99.90
49855;DHT22;35752;52.164;21.244;2022-11-03T04:26:17;6.00;99.90
49855;DHT22;35752;52.164;21.244;2022-11-03T04:28:44;6.00;99.90
49855;DHT22;35752;52.164;21.244;2022-11-03T04:31:11;6.00;99.90
49855;DHT22;35752;52.164;21.244;2022-11-03T04:33:37;6.00;99.90
49855;DHT22;35752;52.164;21.244;2022-11-03T04:36:04;6.00;99.90
49855;DHT22;35752;52.164;21.244;2022-11-03T04:38:33;6.00;99.90
49855;DHT22;35752;52.164;21.244;2022-11-03T04:40:59;6.00;99.90
49855;DHT22;35752;52.164;21.244;2022-11-03T04:43:34;6.00;99.90
49855;DHT22;35752;52.164;21.244;2022-11-03T04:46:00;5.90;99.90
49855;DHT22;35752;52.164;21.244;2022-11-03T04:48:26;5.90;99.90
49855;DHT22;35752;52.164;21.244;2022-11-03T04:50:54;5.90;99.90
49855;DHT22;35752;52.164;21.244;2022-11-03T04:53:20;5.90;99.90
49855;DHT22;35752;52.164;21.244;2022-11-03T04:55:48;5.80;99.90
49855;DHT22;35752;52.164;21.244;2022-11-03T04:58:24;5.80;99.90
49855;DHT22;35752;52.164;21.244;2022-11-03T05:00:51;5.70;99.90
49855;DHT22;35752;52.164;21.244;2022-11-03T05:03:21;5.70;99.90
49855;DHT22;35752;52.164;21.244;2022-11-03T05:05:47;5.70;99.90
49855;DHT22;35752;52.164;21.244;2022-11-03T05:08:13;5.60;99.90
49855;DHT22;35752;52.164;21.244;2022-11-03T05:10:40;5.60;99.90
49855;DHT22;35752;52.164;21.244;2022-11-03T05:13:08;5.60;99.90
49855;DHT22;35752;52.164;21.244;2022-11-03T05:15:40;5.60;99.90
49855;DHT22;35752;52.164;21.244;2022-11-03T05:20:44;5.50;99.90
49855;DHT22;35752;52.164;21.244;2022-11-03T05:23:10;5.50;99.90
49855;DHT22;35752;52.164;21.244;2022-11-03T05:25:41;5.50;99.90
49855;DHT22;35752;52.164;21.244;2022-11-03T05:28:29;5.50;99.90
49855;DHT22;35752;52.164;21.244;2022-11-03T05:30:53;5.50;99.90
49855;DHT22;35752;52.164;21.244;2022-11-03T05:33:28;5.50;99.90
49855;DHT22;35752;52.164;21.244;2022-11-03T05:35:55;5.50;99.90
49855;DHT22;35752;52.164;21.244;2022-11-03T05:38:21;5.50;99.90
49855;DHT22;35752;52.164;21.244;2022-11-03T05:40:51;5.40;99.90
49855;DHT22;35752;52.164;21.244;2022-11-03T05:43:17;5.40;99.90
49855;DHT22;35752;52.164;21.244;2022-11-03T05:45:43;5.40;99.90
49855;DHT22;35752;52.164;21.244;2022-11-03T05:48:12;5.40;99.90
49855;DHT22;35752;52.164;21.244;2022-11-03T05:50:38;5.40;99.90
49855;DHT22;35752;52.164;21.244;2022-11-03T05:53:16;5.50;99.90
49855;DHT22;35752;52.164;21.244;2022-11-03T05:55:44;5.50;99.90
49855;DHT22;35752;52.164;21.244;2022-11-03T06:00:44;5.50;99.90
49855;DHT22;35752;52.164;21.244;2022-11-03T06:03:13;5.50;99.90
49855;DHT22;35752;52.164;21.244;2022-11-03T06:05:40;5.50;99.90
49855;DHT22;35752;52.164;21.244;2022-11-03T06:08:12;5.50;99.90
49855;DHT22;35752;52.164;21.244;2022-11-03T06:10:39;5.60;99.90
49855;DHT22;35752;52.164;21.244;2022-11-03T06:13:13;5.60;99.90
49855;DHT22;35752;52.164;21.244;2022-11-03T06:15:41;5.70;99.90
49855;DHT22;35752;52.164;21.244;2022-11-03T06:18:20;5.70;99.90
49855;DHT22;35752;52.164;21.244;2022-11-03T06:20:57;5.70;99.90
49855;DHT22;35752;52.164;21.244;2022-11-03T06:23:22;5.70;99.90
49855;DHT22;35752;52.164;21.244;2022-11-03T06:25:49;5.70;99.90
49855;DHT22;35752;52.164;21.244;2022-11-03T06:28:23;5.80;99.90
49855;DHT22;35752;52.164;21.244;2022-11-03T06:30:49;5.90;99.90
49855;DHT22;35752;52.164;21.244;2022-11-03T06:33:18;6.00;99.90
49855;DHT22;35752;52.164;21.244;2022-11-03T06:35:46;6.00;99.90
49855;DHT22;35752;52.164;21.244;2022-11-03T06:38:13;6.20;99.90
49855;DHT22;35752;52.164;21.244;2022-11-03T06:40:40;6.20;99.90
49855;DHT22;35752;52.164;21.244;2022-11-03T06:43:18;6.30;99.90
49855;DHT22;35752;52.164;21.244;2022-11-03T06:45:48;6.40;99.90
49855;DHT22;35752;52.164;21.244;2022-11-03T06:48:18;6.40;99.90
49855;DHT22;35752;52.164;21.244;2022-11-03T06:50:44;6.50;99.90
49855;DHT22;35752;52.164;21.244;2022-11-03T06:53:10;6.60;99.90
49855;DHT22;35752;52.164;21.244;2022-11-03T06:55:36;6.60;99.90
49855;DHT22;35752;52.164;21.244;2022-11-03T07:00:40;6.80;99.90
49855;DHT22;35752;52.164;21.244;2022-11-03T07:05:35;6.90;99.90
49855;DHT22;35752;52.164;21.244;2022-11-03T07:08:23;7.00;99.90
49855;DHT22;35752;52.164;21.244;2022-11-03T07:10:47;7.10;99.90
49855;DHT22;35752;52.164;21.244;2022-11-03T07:13:19;7.10;99.90
49855;DHT22;35752;52.164;21.244;2022-11-03T07:15:46;7.20;99.90
49855;DHT22;35752;52.164;21.244;2022-11-03T07:18:15;7.40;99.90
49855;DHT22;35752;52.164;21.244;2022-11-03T07:20:42;7.40;99.90
49855;DHT22;35752;52.164;21.244;2022-11-03T07:23:08;7.50;99.90
49855;DHT22;35752;52.164;21.244;2022-11-03T07:25:37;7.50;99.90
49855;DHT22;35752;52.164;21.244;2022-11-03T07:28:02;7.60;99.90
49855;DHT22;35752;52.164;21.244;2022-11-03T07:30:29;7.70;99.90
49855;DHT22;35752;52.164;21.244;2022-11-03T07:33:01;7.70;99.90
49855;DHT22;35752;52.164;21.244;2022-11-03T07:35:34;7.80;99.90
49855;DHT22;35752;52.164;21.244;2022-11-03T07:38:01;7.90;99.90
49855;DHT22;35752;52.164;21.244;2022-11-03T07:40:27;8.00;99.90
49855;DHT22;35752;52.164;21.244;2022-11-03T07:42:59;8.00;99.90
49855;DHT22;35752;52.164;21.244;2022-11-03T07:50:48;8.30;99.90
49855;DHT22;35752;52.164;21.244;2022-11-03T07:53:18;8.40;99.90
49855;DHT22;35752;52.164;21.244;2022-11-03T07:55:45;8.50;99.90
49855;DHT22;35752;52.164;21.244;2022-11-03T07:58:33;8.50;99.90
49855;DHT22;35752;52.164;21.244;2022-11-03T08:00:56;8.60;99.90
49855;DHT22;35752;52.164;21.244;2022-11-03T08:03:34;8.70;99.90
49855;DHT22;35752;52.164;21.244;2022-11-03T08:05:59;8.70;99.90
49855;DHT22;35752;52.164;21.244;2022-11-03T08:08:25;8.90;99.90
49855;DHT22;35752;52.164;21.244;2022-11-03T08:10:50;8.90;99.90
49855;DHT22;35752;52.164;21.244;2022-11-03T08:13:16;9.00;99.90
49855;DHT22;35752;52.164;21.244;2022-11-03T08:15:41;9.00;99.90
49855;DHT22;35752;52.164;21.244;2022-11-03T08:18:07;9.20;99.90
49855;DHT22;35752;52.164;21.244;2022-11-03T08:20:33;9.20;99.90
49855;DHT22;35752;52.164;21.244;2022-11-03T08:22:58;9.20;99.90
49855;DHT22;35752;52.164;21.244;2022-11-03T08:25:24;9.30;99.90
49855;DHT22;35752;52.164;21.244;2022-11-03T08:27:49;9.40;99.90
49855;DHT22;35752;52.164;21.244;2022-11-03T08:30:15;9.50;99.90
49855;DHT22;35752;52.164;21.244;2022-11-03T08:32:40;9.50;99.90
49855;DHT22;35752;52.164;21.244;2022-11-03T08:35:06;9.60;99.90
49855;DHT22;35752;52.164;21.244;2022-11-03T08:37:32;9.60;99.90
49855;DHT22;35752;52.164;21.244;2022-11-03T08:39:57;9.60;99.90
49855;DHT22;35752;52.164;21.244;2022-11-03T08:42:23;9.70;99.90
49855;DHT22;35752;52.164;21.244;2022-11-03T08:44:49;9.80;99.90
49855;DHT22;35752;52.164;21.244;2022-11-03T08:47:14;9.90;99.90
49855;DHT22;35752;52.164;21.244;2022-11-03T08:49:40;9.90;99.90
49855;DHT22;35752;52.164;21.244;2022-11-03T08:52:05;9.90;99.90
49855;DHT22;35752;52.164;21.244;2022-11-03T08:54:31;10.00;99.90
49855;DHT22;35752;52.164;21.244;2022-11-03T08:56:56;10.00;99.90
49855;DHT22;35752;52.164;21.244;2022-11-03T08:59:22;10.10;99.90
49855;DHT22;35752;52.164;21.244;2022-11-03T09:01:47;10.10;99.90
49855;DHT22;35752;52.164;21.244;2022-11-03T09:04:13;10.20;99.90
49855;DHT22;35752;52.164;21.244;2022-11-03T09:06:38;10.20;99.90
49855;DHT22;35752;52.164;21.244;2022-11-03T09:09:05;10.30;99.90
49855;DHT22;35752;52.164;21.244;2022-11-03T09:11:30;10.40;99.90
49855;DHT22;35752;52.164;21.244;2022-11-03T09:13:56;10.40;99.90
49855;DHT22;35752;52.164;21.244;2022-11-03T09:16:22;10.50;99.90
49855;DHT22;35752;52.164;21.244;2022-11-03T09:18:47;10.50;99.90
49855;DHT22;35752;52.164;21.244;2022-11-03T09:21:13;10.60;99.90
49855;DHT22;35752;52.164;21.244;2022-11-03T09:23:39;10.70;99.90
49855;DHT22;35752;52.164;21.244;2022-11-03T09:26:04;10.70;99.90
49855;DHT22;35752;52.164;21.244;2022-11-03T09:28:31;10.70;99.90
49855;DHT22;35752;52.164;21.244;2022-11-03T09:30:56;10.80;99.90
49855;DHT22;35752;52.164;21.244;2022-11-03T09:33:22;10.80;99.90
49855;DHT22;35752;52.164;21.244;2022-11-03T09:35:47;10.80;99.90
49855;DHT22;35752;52.164;21.244;2022-11-03T09:38:13;10.90;99.90
49855;DHT22;35752;52.164;21.244;2022-11-03T09:40:38;10.90;99.90
49855;DHT22;35752;52.164;21.244;2022-11-03T09:43:04;10.90;99.90
49855;DHT22;35752;52.164;21.244;2022-11-03T09:45:29;11.00;99.90
49855;DHT22;35752;52.164;21.244;2022-11-03T09:47:56;11.10;99.90
49855;DHT22;35752;52.164;21.244;2022-11-03T09:50:21;11.00;99.90
49855;DHT22;35752;52.164;21.244;2022-11-03T09:52:47;11.20;99.90
49855;DHT22;35752;52.164;21.244;2022-11-03T09:55:14;11.20;99.90
49855;DHT22;35752;52.164;21.244;2022-11-03T09:57:40;11.20;99.90
49855;DHT22;35752;52.164;21.244;2022-11-03T10:00:07;11.40;99.90
49855;DHT22;35752;52.164;21.244;2022-11-03T10:02:37;11.40;99.90
49855;DHT22;35752;52.164;21.244;2022-11-03T10:05:04;11.40;99.90
49855;DHT22;35752;52.164;21.244;2022-11-03T10:07:30;11.40;99.90
49855;DHT22;35752;52.164;21.244;2022-11-03T10:09:57;11.40;99.90
49855;DHT22;35752;52.164;21.244;2022-11-03T10:12:23;11.50;99.90
49855;DHT22;35752;52.164;21.244;2022-11-03T10:14:49;11.50;99.90
49855;DHT22;35752;52.164;21.244;2022-11-03T10:17:16;11.50;99.90
49855;DHT22;35752;52.164;21.244;2022-11-03T10:19:43;11.50;99.90
49855;DHT22;35752;52.164;21.244;2022-11-03T10:22:09;11.50;99.90
49855;DHT22;35752;52.164;21.244;2022-11-03T10:24:35;11.60;99.90
49855;DHT22;35752;52.164;21.244;2022-11-03T10:27:02;11.70;99.90
49855;DHT22;35752;52.164;21.244;2022-11-03T10:29:27;11.70;99.90
49855;DHT22;35752;52.164;21.244;2022-11-03T10:31:54;11.70;99.90
49855;DHT22;35752;52.164;21.244;2022-11-03T10:34:35;11.70;99.90
49855;DHT22;35752;52.164;21.244;2022-11-03T10:37:08;11.80;99.90
49855;DHT22;35752;52.164;21.244;2022-11-03T10:39:34;11.80;99.90
49855;DHT22;35752;52.164;21.244;2022-11-03T10:41:59;11.80;99.90
49855;DHT22;35752;52.164;21.244;2022-11-03T10:44:26;11.80;99.90
49855;DHT22;35752;52.164;21.244;2022-11-03T10:49:21;11.90;99.90
49855;DHT22;35752;52.164;21.244;2022-11-03T10:51:47;11.90;99.90
49855;DHT22;35752;52.164;21.244;2022-11-03T10:54:14;11.90;99.90
49855;DHT22;35752;52.164;21.244;2022-11-03T10:56:40;12.00;99.90
49855;DHT22;35752;52.164;21.244;2022-11-03T10:59:13;12.00;99.90
49855;DHT22;35752;52.164;21.244;2022-11-03T11:01:40;12.10;99.90
49855;DHT22;35752;52.164;21.244;2022-11-03T11:04:06;12.10;99.90
49855;DHT22;35752;52.164;21.244;2022-11-03T11:06:31;12.10;99.90
49855;DHT22;35752;52.164;21.244;2022-11-03T11:09:01;12.20;99.90
49855;DHT22;35752;52.164;21.244;2022-11-03T11:11:27;12.20;99.90
49855;DHT22;35752;52.164;21.244;2022-11-03T11:19:15;12.30;99.90
49855;DHT22;35752;52.164;21.244;2022-11-03T11:24:09;12.40;99.90
49855;DHT22;35752;52.164;21.244;2022-11-03T11:26:35;12.40;99.90
49855;DHT22;35752;52.164;21.244;2022-11-03T11:31:33;12.40;99.90
49855;DHT22;35752;52.164;21.244;2022-11-03T11:36:34;12.40;99.90
49855;DHT22;35752;52.164;21.244;2022-11-03T11:39:00;12.40;99.90
49855;DHT22;35752;52.164;21.244;2022-11-03T11:47:30;12.40;99.90
49855;DHT22;35752;52.164;21.244;2022-11-03T11:55:16;12.50;99.90
49855;DHT22;35752;52.164;21.244;2022-11-03T11:57:42;12.50;99.90
49855;DHT22;35752;52.164;21.244;2022-11-03T12:02:44;12.50;99.90
49855;DHT22;35752;52.164;21.244;2022-11-03T12:05:16;12.60;99.90
49855;DHT22;35752;52.164;21.244;2022-11-03T12:07:42;12.60;99.90
49855;DHT22;35752;52.164;21.244;2022-11-03T12:12:33;12.60;99.90
49855;DHT22;35752;52.164;21.244;2022-11-03T12:14:59;12.60;99.90
49855;DHT22;35752;52.164;21.244;2022-11-03T12:29:54;12.60;99.90
49855;DHT22;35752;52.164;21.244;2022-11-03T12:32:20;12.60;99.90
49855;DHT22;35752;52.164;21.244;2022-11-03T12:34:45;12.60;99.90
49855;DHT22;35752;52.164;21.244;2022-11-03T12:37:11;12.60;99.90
49855;DHT22;35752;52.164;21.244;2022-11-03T12:39:36;12.60;99.90
49855;DHT22;35752;52.164;21.244;2022-11-03T12:42:02;12.60;99.90
49855;DHT22;35752;52.164;21.244;2022-11-03T12:44:28;12.60;99.90
49855;DHT22;35752;52.164;21.244;2022-11-03T12:46:53;12.60;99.90
49855;DHT22;35752;52.164;21.244;2022-11-03T12:49:19;12.60;99.90
49855;DHT22;35752;52.164;21.244;2022-11-03T12:51:44;12.60;99.90
49855;DHT22;35752;52.164;21.244;2022-11-03T12:54:10;12.60;99.90
49855;DHT22;35752;52.164;21.244;2022-11-03T12:56:35;12.60;99.90
49855;DHT22;35752;52.164;21.244;2022-11-03T12:59:01;12.70;99.90
49855;DHT22;35752;52.164;21.244;2022-11-03T13:01:26;12.70;99.90
49855;DHT22;35752;52.164;21.244;2022-11-03T13:03:52;12.70;99.90
49855;DHT22;35752;52.164;21.244;2022-11-03T13:06:17;12.80;99.90
49855;DHT22;35752;52.164;21.244;2022-11-03T13:08:43;12.70;99.90
49855;DHT22;35752;52.164;21.244;2022-11-03T13:11:08;12.80;99.90
49855;DHT22;35752;52.164;21.244;2022-11-03T13:13:52;12.80;99.90
49855;DHT22;35752;52.164;21.244;2022-11-03T13:16:18;12.70;99.90
49855;DHT22;35752;52.164;21.244;2022-11-03T13:18:43;12.80;99.90
49855;DHT22;35752;52.164;21.244;2022-11-03T13:21:09;12.80;99.90
49855;DHT22;35752;52.164;21.244;2022-11-03T13:23:34;12.80;99.90
49855;DHT22;35752;52.164;21.244;2022-11-03T13:26:00;12.80;99.90
49855;DHT22;35752;52.164;21.244;2022-11-03T13:28:25;12.80;99.90
49855;DHT22;35752;52.164;21.244;2022-11-03T13:30:51;12.80;99.90
49855;DHT22;35752;52.164;21.244;2022-11-03T13:33:16;12.80;99.90
49855;DHT22;35752;52.164;21.244;2022-11-03T13:35:42;12.80;99.90
49855;DHT22;35752;52.164;21.244;2022-11-03T13:38:07;12.70;99.90
49855;DHT22;35752;52.164;21.244;2022-11-03T13:40:33;12.70;99.90
49855;DHT22;35752;52.164;21.244;2022-11-03T13:42:58;12.70;99.90
49855;DHT22;35752;52.164;21.244;2022-11-03T13:45:24;12.80;99.90
49855;DHT22;35752;52.164;21.244;2022-11-03T13:47:49;12.80;99.90
49855;DHT22;35752;52.164;21.244;2022-11-03T13:50:15;12.80;99.90
49855;DHT22;35752;52.164;21.244;2022-11-03T13:52:40;12.80;99.90
49855;DHT22;35752;52.164;21.244;2022-11-03T13:55:06;12.80;99.90
49855;DHT22;35752;52.164;21.244;2022-11-03T13:57:31;12.70;99.90
49855;DHT22;35752;52.164;21.244;2022-11-03T13:59:57;12.70;99.90
49855;DHT22;35752;52.164;21.244;2022-11-03T14:02:22;12.70;99.90
49855;DHT22;35752;52.164;21.244;2022-11-03T14:04:48;12.60;99.90
49855;DHT22;35752;52.164;21.244;2022-11-03T14:07:13;12.60;99.90
49855;DHT22;35752;52.164;21.244;2022-11-03T14:09:39;12.60;99.90
49855;DHT22;35752;52.164;21.244;2022-11-03T14:12:04;12.50;99.90
49855;DHT22;35752;52.164;21.244;2022-11-03T14:14:49;12.40;99.90
49855;DHT22;35752;52.164;21.244;2022-11-03T14:17:14;12.40;99.90
49855;DHT22;35752;52.164;21.244;2022-11-03T14:19:40;12.30;99.90
49855;DHT22;35752;52.164;21.244;2022-11-03T14:22:05;12.30;99.90
49855;DHT22;35752;52.164;21.244;2022-11-03T14:24:31;12.30;99.90
49855;DHT22;35752;52.164;21.244;2022-11-03T14:26:56;12.10;99.90
49855;DHT22;35752;52.164;21.244;2022-11-03T14:29:22;12.10;99.90
49855;DHT22;35752;52.164;21.244;2022-11-03T14:31:47;12.00;99.90
49855;DHT22;35752;52.164;21.244;2022-11-03T14:34:13;11.90;99.90
49855;DHT22;35752;52.164;21.244;2022-11-03T14:36:38;11.80;99.90
49855;DHT22;35752;52.164;21.244;2022-11-03T14:39:04;11.70;99.90
49855;DHT22;35752;52.164;21.244;2022-11-03T14:41:30;11.70;99.90
49855;DHT22;35752;52.164;21.244;2022-11-03T14:44:14;11.50;99.90
49855;DHT22;35752;52.164;21.244;2022-11-03T14:46:39;11.50;99.90
49855;DHT22;35752;52.164;21.244;2022-11-03T14:49:05;11.40;99.90
49855;DHT22;35752;52.164;21.244;2022-11-03T14:51:30;11.30;99.90
49855;DHT22;35752;52.164;21.244;2022-11-03T14:53:56;11.30;99.90
49855;DHT22;35752;52.164;21.244;2022-11-03T14:56:22;11.20;99.90
49855;DHT22;35752;52.164;21.244;2022-11-03T14:58:47;11.10;99.90
49855;DHT22;35752;52.164;21.244;2022-11-03T15:01:14;11.00;99.90
49855;DHT22;35752;52.164;21.244;2022-11-03T15:03:40;10.90;99.90
49855;DHT22;35752;52.164;21.244;2022-11-03T15:06:06;10.80;99.90
49855;DHT22;35752;52.164;21.244;2022-11-03T15:08:32;10.70;99.90
49855;DHT22;35752;52.164;21.244;2022-11-03T15:10:57;10.60;99.90
49855;DHT22;35752;52.164;21.244;2022-11-03T15:13:23;10.50;99.90
49855;DHT22;35752;52.164;21.244;2022-11-03T15:15:49;10.40;99.90
49855;DHT22;35752;52.164;21.244;2022-11-03T15:18:14;10.30;99.90
49855;DHT22;35752;52.164;21.244;2022-11-03T15:20:40;10.30;99.90
49855;DHT22;35752;52.164;21.244;2022-11-03T15:23:05;10.20;99.90
49855;DHT22;35752;52.164;21.244;2022-11-03T15:25:31;10.10;99.90
49855;DHT22;35752;52.164;21.244;2022-11-03T15:27:57;10.00;99.90
49855;DHT22;35752;52.164;21.244;2022-11-03T15:30:22;9.80;99.90
49855;DHT22;35752;52.164;21.244;2022-11-03T15:32:48;9.80;99.90
49855;DHT22;35752;52.164;21.244;2022-11-03T15:35:13;9.70;99.90
49855;DHT22;35752;52.164;21.244;2022-11-03T15:37:39;9.60;99.90
49855;DHT22;35752;52.164;21.244;2022-11-03T15:40:06;9.60;99.90
49855;DHT22;35752;52.164;21.244;2022-11-03T15:42:32;9.40;99.90
49855;DHT22;35752;52.164;21.244;2022-11-03T15:44:58;9.40;99.90
49855;DHT22;35752;52.164;21.244;2022-11-03T15:47:23;9.40;99.90
49855;DHT22;35752;52.164;21.244;2022-11-03T15:49:49;9.40;99.90
49855;DHT22;35752;52.164;21.244;2022-11-03T15:52:14;9.40;99.90
49855;DHT22;35752;52.164;21.244;2022-11-03T15:54:40;9.30;99.90
49855;DHT22;35752;52.164;21.244;2022-11-03T15:57:05;9.30;99.90
49855;DHT22;35752;52.164;21.244;2022-11-03T15:59:31;9.20;99.90
49855;DHT22;35752;52.164;21.244;2022-11-03T16:01:57;9.10;99.90
49855;DHT22;35752;52.164;21.244;2022-11-03T16:04:22;9.10;99.90
49855;DHT22;35752;52.164;21.244;2022-11-03T16:06:48;9.00;99.90
49855;DHT22;35752;52.164;21.244;2022-11-03T16:09:14;8.80;99.90
49855;DHT22;35752;52.164;21.244;2022-11-03T16:11:39;8.70;99.90
49855;DHT22;35752;52.164;21.244;2022-11-03T16:14:05;8.60;99.90
49855;DHT22;35752;52.164;21.244;2022-11-03T16:16:30;8.50;99.90
49855;DHT22;35752;52.164;21.244;2022-11-03T16:18:56;8.50;99.90
49855;DHT22;35752;52.164;21.244;2022-11-03T16:21:21;8.50;99.90
49855;DHT22;35752;52.164;21.244;2022-11-03T16:23:47;8.40;99.90
49855;DHT22;35752;52.164;21.244;2022-11-03T16:26:12;8.40;99.90
49855;DHT22;35752;52.164;21.244;2022-11-03T16:28:38;8.30;99.90
49855;DHT22;35752;52.164;21.244;2022-11-03T16:31:04;8.30;99.90
49855;DHT22;35752;52.164;21.244;2022-11-03T16:33:29;8.20;99.90
49855;DHT22;35752;52.164;21.244;2022-11-03T16:35:55;8.20;99.90
49855;DHT22;35752;52.164;21.244;2022-11-03T16:38:20;8.20;99.90